Time;durP1;ratioP1;P1;durP2;ratioP2;P2;SDS_P1;SDS_P2;PMS_P1;PMS_P2;Temp;Humidity;BMP_temperature;BMP_pressure;BME280_temperature;BME280_humidity;BME280_pressure;Samples;Min_cycle;Max_cycle;Signal;HPM_P1;HPM_P2
2020/12/03 00:00:40;;;;;;;26.30;12.57;;;8.80;99.90;;;;;;5035221;28;20183;-91
2020/12/03 00:03:29;;;;;;;27.00;12.82;;;8.80;99.90;;;;;;5034762;28;20542;-91
2020/12/03 00:06:07;;;;;;;29.15;12.00;;;8.70;99.90;;;;;;5034026;28;20172;-91
2020/12/03 00:08:39;;;;;;;26.75;12.10;;;8.80;99.90;;;;;;5034169;28;20157;-91
2020/12/03 00:11:05;;;;;;;34.83;12.63;;;8.80;99.90;;;;;;5033369;28;20216;-90
2020/12/03 00:13:32;;;;;;;28.02;11.65;;;8.80;99.90;;;;;;5016704;28;20230;-90
2020/12/03 00:16:00;;;;;;;29.08;12.07;;;8.80;99.90;;;;;;5033811;28;20175;-90
2020/12/03 00:18:32;;;;;;;26.40;11.02;;;8.70;99.90;;;;;;5033693;28;20183;-91
2020/12/03 00:20:59;;;;;;;24.92;10.73;;;8.80;99.90;;;;;;5035068;28;20218;-90
2020/12/03 00:23:25;;;;;;;22.70;11.15;;;8.80;99.90;;;;;;5033936;28;20183;-90
2020/12/03 00:25:53;;;;;;;25.80;10.77;;;8.70;99.90;;;;;;5034478;28;20172;-91
2020/12/03 00:28:19;;;;;;;31.15;10.07;;;8.70;99.90;;;;;;5060431;28;20148;-91
2020/12/03 00:30:45;;;;;;;32.17;10.52;;;8.70;99.90;;;;;;5060421;28;20175;-91
2020/12/03 00:33:17;;;;;;;36.13;10.67;;;8.60;99.90;;;;;;5057240;28;20279;-90
2020/12/03 00:35:49;;;;;;;36.77;11.00;;;8.50;99.90;;;;;;5039373;28;20199;-90
2020/12/03 00:38:17;;;;;;;25.67;10.73;;;8.50;99.90;;;;;;5038568;28;20176;-91
2020/12/03 00:40:43;;;;;;;23.43;9.20;;;8.60;99.90;;;;;;5037777;28;20495;-91
2020/12/03 00:43:09;;;;;;;36.53;10.17;;;8.60;99.90;;;;;;5021363;28;20215;-91
2020/12/03 00:45:35;;;;;;;24.60;9.37;;;8.50;99.90;;;;;;5059943;28;20165;-90
2020/12/03 00:48:02;;;;;;;27.33;10.30;;;8.50;99.90;;;;;;5059223;28;20248;-91
2020/12/03 00:50:28;;;;;;;27.97;10.37;;;8.50;99.90;;;;;;5032157;28;20244;-90
2020/12/03 00:52:54;;;;;;;18.40;9.03;;;8.50;99.90;;;;;;5037751;28;20207;-90
2020/12/03 00:55:20;;;;;;;24.77;9.77;;;8.50;99.90;;;;;;5020864;28;20676;-90
2020/12/03 00:57:45;;;;;;;18.23;9.53;;;8.50;99.90;;;;;;5037288;28;20271;-90
2020/12/03 01:00:14;;;;;;;32.80;11.00;;;8.50;99.90;;;;;;5037436;28;20218;-90
2020/12/03 01:02:42;;;;;;;35.47;10.87;;;8.50;99.90;;;;;;5036867;28;20203;-90
2020/12/03 01:05:11;;;;;;;35.43;11.80;;;8.50;99.90;;;;;;5036543;28;20183;-90
2020/12/03 01:07:37;;;;;;;24.77;10.40;;;8.50;99.90;;;;;;5036827;28;20270;-90
2020/12/03 01:10:08;;;;;;;32.72;10.73;;;8.60;99.90;;;;;;5036827;28;20255;-90
2020/12/03 01:12:34;;;;;;;26.80;10.80;;;8.50;99.90;;;;;;5037564;28;20179;-91
2020/12/03 01:14:59;;;;;;;26.53;10.87;;;8.50;99.90;;;;;;5036948;28;20200;-90
2020/12/03 01:17:25;;;;;;;28.60;11.60;;;8.50;99.90;;;;;;5036785;28;20330;-91
2020/12/03 01:19:53;;;;;;;31.47;11.30;;;8.50;99.90;;;;;;5020225;28;20176;-92
2020/12/03 01:22:19;;;;;;;28.27;12.00;;;8.40;99.90;;;;;;5036128;28;20172;-91
2020/12/03 01:24:45;;;;;;;21.77;11.50;;;8.50;99.90;;;;;;5037128;28;20179;-91
2020/12/03 01:27:11;;;;;;;22.17;12.03;;;8.40;99.90;;;;;;5035836;28;20174;-91
2020/12/03 01:29:37;;;;;;;33.70;13.73;;;8.40;99.90;;;;;;5035961;28;20180;-91
2020/12/03 01:32:03;;;;;;;34.50;12.63;;;8.30;99.90;;;;;;5018800;28;20182;-91
2020/12/03 01:34:31;;;;;;;33.17;12.13;;;8.20;99.90;;;;;;5019034;28;20208;-90
2020/12/03 01:36:57;;;;;;;38.17;12.57;;;8.20;99.90;;;;;;5003675;28;20267;-91
2020/12/03 01:39:22;;;;;;;39.17;12.77;;;8.30;99.90;;;;;;5003206;28;20199;-92
2020/12/03 01:41:52;;;;;;;29.27;12.90;;;8.30;99.90;;;;;;5038969;28;20259;-91
2020/12/03 01:44:35;;;;;;;34.13;13.30;;;8.30;99.90;;;;;;5038296;28;20604;-91
2020/12/03 01:47:01;;;;;;;26.97;12.17;;;8.20;99.90;;;;;;5036364;28;20262;-91
2020/12/03 01:49:31;;;;;;;31.63;12.57;;;8.10;99.90;;;;;;5036197;28;20164;-91
2020/12/03 01:51:57;;;;;;;35.40;13.13;;;8.10;99.90;;;;;;5041649;28;20221;-91
2020/12/03 01:54:23;;;;;;;28.60;11.90;;;8.10;99.90;;;;;;5038019;28;20199;-92
2020/12/03 01:56:57;;;;;;;39.10;13.17;;;8.10;99.90;;;;;;5038011;28;20223;-91
2020/12/03 01:59:27;;;;;;;34.50;12.20;;;8.10;99.90;;;;;;5037801;28;20179;-91
2020/12/03 02:01:54;;;;;;;28.43;12.73;;;8.10;99.90;;;;;;5038172;28;20179;-91
2020/12/03 02:04:20;;;;;;;39.43;12.97;;;8.20;99.90;;;;;;5038019;28;20418;-91
2020/12/03 02:06:48;;;;;;;35.53;13.23;;;8.20;99.90;;;;;;5021752;28;20226;-91
2020/12/03 02:09:14;;;;;;;35.00;13.13;;;8.20;99.90;;;;;;5038087;28;20176;-91
2020/12/03 02:11:40;;;;;;;36.03;13.13;;;8.20;99.90;;;;;;5038541;28;20186;-91
2020/12/03 02:14:10;;;;;;;34.63;12.57;;;8.10;99.90;;;;;;5038389;28;20200;-90
2020/12/03 02:16:40;;;;;;;31.60;13.07;;;8.10;99.90;;;;;;5037786;28;20210;-91
2020/12/03 02:19:25;;;;;;;35.13;13.93;;;8.20;99.90;;;;;;5036868;28;20165;-91
2020/12/03 02:21:59;;;;;;;35.67;13.23;;;8.30;99.90;;;;;;5040334;28;20606;-92
2020/12/03 02:24:27;;;;;;;32.93;13.87;;;8.40;99.90;;;;;;5034821;28;20206;-92
2020/12/03 02:26:53;;;;;;;31.70;13.73;;;8.30;99.90;;;;;;5039101;28;20180;-92
2020/12/03 02:29:19;;;;;;;34.17;15.00;;;8.40;99.90;;;;;;5019903;28;20172;-91
2020/12/03 02:31:47;;;;;;;34.07;13.20;;;8.40;99.90;;;;;;5036121;28;20164;-92
2020/12/03 02:34:13;;;;;;;39.07;14.00;;;8.30;99.90;;;;;;5034912;28;20233;-92
2020/12/03 02:36:38;;;;;;;37.83;12.93;;;8.40;99.90;;;;;;5019538;28;20262;-92
2020/12/03 02:39:05;;;;;;;34.47;13.60;;;8.20;99.90;;;;;;5018449;28;20183;-92
2020/12/03 02:41:30;;;;;;;32.10;13.53;;;8.10;99.90;;;;;;5019078;28;20191;-90
2020/12/03 02:43:56;;;;;;;27.67;12.47;;;8.10;99.90;;;;;;5035151;28;20613;-91
2020/12/03 02:46:22;;;;;;;34.57;13.60;;;8.10;99.90;;;;;;5035144;28;20176;-92
2020/12/03 02:48:47;;;;;;;29.43;13.77;;;8.10;99.90;;;;;;5002609;28;20268;-92
2020/12/03 02:51:14;;;;;;;36.20;13.23;;;8.10;99.90;;;;;;5020936;28;20172;-92
2020/12/03 02:53:40;;;;;;;39.87;13.47;;;8.00;99.90;;;;;;5045179;28;20564;-91
2020/12/03 02:56:07;;;;;;;31.13;13.63;;;8.00;99.90;;;;;;5040965;28;20163;-90
2020/12/03 02:58:33;;;;;;;40.87;13.37;;;7.90;99.90;;;;;;5041023;28;20180;-91
2020/12/03 03:01:00;;;;;;;33.27;13.73;;;7.90;99.90;;;;;;5041822;28;20210;-91
2020/12/03 03:03:25;;;;;;;32.53;12.97;;;7.90;99.90;;;;;;5041705;28;20168;-91
2020/12/03 03:05:51;;;;;;;32.80;13.60;;;7.80;99.90;;;;;;5058073;28;20164;-89
2020/12/03 03:08:19;;;;;;;29.20;12.80;;;7.80;99.90;;;;;;5029744;28;20176;-92
2020/12/03 03:10:47;;;;;;;38.23;13.83;;;7.80;99.90;;;;;;5057787;28;20152;-88
2020/12/03 03:13:19;;;;;;;28.40;13.23;;;7.70;99.90;;;;;;5057685;28;20206;-93
2020/12/03 03:15:45;;;;;;;38.53;13.67;;;7.80;99.90;;;;;;5051002;28;20267;-93
2020/12/03 03:18:15;;;;;;;28.27;13.40;;;7.70;99.90;;;;;;5023193;28;20203;-92
2020/12/03 03:20:40;;;;;;;32.57;13.30;;;7.70;99.90;;;;;;5041635;28;20187;-91
2020/12/03 03:23:06;;;;;;;28.73;12.57;;;7.70;99.90;;;;;;5035528;28;20183;-91
2020/12/03 03:25:32;;;;;;;33.83;13.83;;;7.70;99.90;;;;;;5034561;28;20508;-91
2020/12/03 03:27:58;;;;;;;35.90;13.63;;;7.80;99.90;;;;;;5034104;28;20172;-92
2020/12/03 03:30:26;;;;;;;34.00;14.33;;;7.90;99.90;;;;;;5033929;28;20172;-92
2020/12/03 03:32:54;;;;;;;39.47;15.00;;;7.90;99.90;;;;;;5017581;28;20183;-91
2020/12/03 03:35:20;;;;;;;29.57;15.50;;;7.90;99.90;;;;;;5033577;28;20241;-91
2020/12/03 03:37:46;;;;;;;26.63;14.67;;;7.80;99.90;;;;;;5033808;28;20168;-91
2020/12/03 03:40:12;;;;;;;33.60;15.33;;;7.80;99.90;;;;;;5017361;28;20186;-92
2020/12/03 03:42:38;;;;;;;38.17;15.50;;;7.80;99.90;;;;;;5033787;28;20617;-92
2020/12/03 03:45:05;;;;;;;36.17;16.17;;;7.90;99.90;;;;;;5017428;28;20187;-91
2020/12/03 03:47:31;;;;;;;32.23;15.70;;;7.90;99.90;;;;;;5033881;28;20168;-92
2020/12/03 03:49:57;;;;;;;31.60;16.27;;;7.90;99.90;;;;;;5034809;28;20186;-92
2020/12/03 03:52:23;;;;;;;31.20;15.20;;;7.80;99.90;;;;;;5033508;28;20172;-91
2020/12/03 03:54:49;;;;;;;34.57;15.30;;;7.80;99.90;;;;;;5017077;28;20223;-92
2020/12/03 03:57:15;;;;;;;27.17;15.60;;;7.80;99.90;;;;;;5033198;28;20211;-91
2020/12/03 03:59:41;;;;;;;33.07;14.80;;;7.90;99.90;;;;;;5033334;28;20179;-91
2020/12/03 04:02:07;;;;;;;36.30;15.80;;;8.00;99.90;;;;;;5018161;28;20172;-91
2020/12/03 04:04:32;;;;;;;29.87;15.10;;;8.00;99.90;;;;;;5037982;28;20181;-91
2020/12/03 04:06:58;;;;;;;26.40;14.20;;;8.00;99.90;;;;;;5036842;28;20172;-91
2020/12/03 04:09:24;;;;;;;34.03;14.33;;;8.00;99.90;;;;;;5038162;28;20215;-90
2020/12/03 04:11:50;;;;;;;34.83;14.70;;;8.00;99.90;;;;;;5037221;28;20613;-91
2020/12/03 04:14:15;;;;;;;21.30;13.77;;;8.00;99.90;;;;;;5037273;28;20208;-91
2020/12/03 04:16:41;;;;;;;34.13;14.80;;;8.00;99.90;;;;;;5020522;28;20172;-90
2020/12/03 04:19:07;;;;;;;40.10;14.87;;;8.00;99.90;;;;;;5020734;28;20221;-91
2020/12/03 04:21:36;;;;;;;32.33;14.20;;;8.00;99.90;;;;;;5004428;28;20779;-90
2020/12/03 04:24:02;;;;;;;33.30;14.40;;;7.90;99.90;;;;;;5036743;28;20639;-90
2020/12/03 04:26:28;;;;;;;32.53;13.53;;;7.90;99.90;;;;;;5020438;28;20180;-90
2020/12/03 04:28:53;;;;;;;30.63;13.57;;;7.80;99.90;;;;;;5036981;28;20168;-90
2020/12/03 04:31:19;;;;;;;32.90;13.50;;;7.90;99.90;;;;;;5036440;28;20515;-90
2020/12/03 04:33:45;;;;;;;27.93;12.27;;;7.90;99.90;;;;;;5037795;28;20219;-90
2020/12/03 04:36:10;;;;;;;35.40;14.23;;;7.90;99.90;;;;;;5036554;28;20216;-91
2020/12/03 04:38:36;;;;;;;26.60;11.70;;;7.80;99.90;;;;;;5003839;28;20183;-91
2020/12/03 04:41:05;;;;;;;27.63;11.23;;;7.80;99.90;;;;;;5013035;28;20176;-90
2020/12/03 04:43:43;;;;;;;28.97;12.17;;;7.80;99.90;;;;;;5046645;28;20221;-90
2020/12/03 04:46:31;;;;;;;26.27;10.93;;;7.80;99.90;;;;;;5046911;28;20202;-90
2020/12/03 04:49:23;;;;;;;36.13;12.10;;;7.80;99.90;;;;;;5041710;28;20172;-91
2020/12/03 04:52:27;;;;;;;29.27;10.30;;;7.80;99.90;;;;;;5036375;28;20215;-90
2020/12/03 04:55:17;;;;;;;19.17;11.23;;;7.80;99.90;;;;;;5036562;28;20234;-90
2020/12/03 04:57:46;;;;;;;27.03;11.10;;;7.80;99.90;;;;;;5036671;28;20559;-90
2020/12/03 05:00:53;;;;;;;25.77;11.07;;;7.70;99.90;;;;;;5036312;28;20199;-90
2020/12/03 05:03:40;;;;;;;22.83;11.03;;;7.70;99.90;;;;;;4979308;28;20555;-90
2020/12/03 05:06:24;;;;;;;22.53;11.57;;;7.70;99.90;;;;;;5014827;28;20192;-91
2020/12/03 05:09:13;;;;;;;24.73;12.60;;;7.70;99.90;;;;;;5016355;28;20189;-91
2020/12/03 05:12:07;;;;;;;30.03;13.50;;;7.70;99.90;;;;;;5028221;28;20179;-90
2020/12/03 05:14:56;;;;;;;42.03;14.43;;;7.60;99.90;;;;;;5004209;28;20215;-90
2020/12/03 05:17:28;;;;;;;23.40;14.07;;;7.60;99.90;;;;;;5051896;28;20232;-90
2020/12/03 05:20:12;;;;;;;35.03;14.97;;;7.60;99.90;;;;;;5059521;28;20148;-88
2020/12/03 05:22:39;;;;;;;33.93;16.23;;;7.70;99.90;;;;;;5212620;22;21165;-89
2020/12/03 05:25:14;;;;;;;33.57;16.30;;;7.60;99.90;;;;;;5040960;28;20195;-90
2020/12/03 05:27:40;;;;;;;37.10;15.93;;;7.70;99.90;;;;;;5037234;28;20175;-90
2020/12/03 05:30:07;;;;;;;41.13;17.17;;;7.70;99.90;;;;;;5037308;28;20179;-90
2020/12/03 05:32:33;;;;;;;45.00;16.30;;;7.70;99.90;;;;;;5035941;28;20172;-90
2020/12/03 05:34:59;;;;;;;46.63;16.57;;;7.80;99.90;;;;;;5036586;28;20222;-88
2020/12/03 05:37:30;;;;;;;33.87;15.43;;;7.80;99.90;;;;;;5059382;28;20180;-91
2020/12/03 05:39:57;;;;;;;35.73;15.60;;;7.70;99.90;;;;;;5037507;28;20629;-90
2020/12/03 05:42:36;;;;;;;42.10;16.33;;;7.60;99.90;;;;;;5036544;28;20176;-90
2020/12/03 05:45:12;;;;;;;48.23;16.20;;;7.60;99.90;;;;;;5036290;28;20182;-91
2020/12/03 05:47:42;;;;;;;32.23;16.07;;;7.50;99.90;;;;;;5035417;28;20176;-90
2020/12/03 05:50:33;;;;;;;41.20;18.17;;;7.50;99.90;;;;;;5035565;28;20656;-90
2020/12/03 05:53:08;;;;;;;42.70;18.10;;;7.50;99.90;;;;;;5015365;28;20177;-91
2020/12/03 05:55:35;;;;;;;53.53;17.57;;;7.50;99.90;;;;;;5015297;28;20295;-90
2020/12/03 05:58:14;;;;;;;36.93;16.97;;;7.60;99.90;;;;;;5016244;28;20173;-90
2020/12/03 06:00:40;;;;;;;42.20;17.87;;;7.60;99.90;;;;;;5015906;28;20219;-90
2020/12/03 06:03:37;;;;;;;40.27;18.00;;;7.60;99.90;;;;;;5022318;28;20176;-90
2020/12/03 06:06:27;;;;;;;44.33;17.77;;;7.60;99.90;;;;;;5035157;28;20572;-90
2020/12/03 06:08:52;;;;;;;46.23;19.10;;;7.60;99.90;;;;;;5037335;28;20163;-90
2020/12/03 06:11:42;;;;;;;43.93;20.43;;;7.50;99.90;;;;;;5035212;28;20175;-89
2020/12/03 06:14:11;;;;;;;31.70;17.23;;;7.60;99.90;;;;;;5034832;28;20204;-90
2020/12/03 06:16:56;;;;;;;38.93;19.40;;;7.60;99.90;;;;;;5035765;28;20173;-90
2020/12/03 06:19:30;;;;;;;34.87;16.90;;;7.70;99.90;;;;;;5035888;28;20171;-90
2020/12/03 06:22:35;;;;;;;40.17;17.10;;;7.70;99.90;;;;;;5034581;28;20309;-89
2020/12/03 06:25:23;;;;;;;30.70;15.80;;;7.70;99.90;;;;;;5033544;28;20196;-89
2020/12/03 06:28:25;;;;;;;33.83;16.27;;;7.70;99.90;;;;;;5035708;28;20239;-90
2020/12/03 06:31:27;;;;;;;29.90;16.47;;;7.70;99.90;;;;;;5035704;28;20296;-90
2020/12/03 06:34:22;;;;;;;32.17;16.00;;;7.60;99.90;;;;;;5034901;28;20203;-90
2020/12/03 06:36:59;;;;;;;34.50;15.80;;;7.60;99.90;;;;;;5032459;28;20188;-91
2020/12/03 06:39:57;;;;;;;34.17;17.43;;;7.50;99.90;;;;;;5034561;28;20164;-91
2020/12/03 06:42:52;;;;;;;27.70;16.77;;;7.60;99.90;;;;;;5034299;28;20168;-90
2020/12/03 06:45:42;;;;;;;37.70;17.93;;;7.60;99.90;;;;;;5026204;28;20184;-90
2020/12/03 06:48:39;;;;;;;32.60;17.73;;;7.60;99.90;;;;;;5034646;28;20180;-90
2020/12/03 06:51:47;;;;;;;29.70;18.23;;;7.60;99.90;;;;;;5034969;28;20215;-90
2020/12/03 06:54:33;;;;;;;31.63;17.63;;;7.60;99.90;;;;;;5002032;28;20229;-90
2020/12/03 06:57:59;;;;;;;27.63;17.73;;;7.50;99.90;;;;;;5034232;28;20171;-90
2020/12/03 07:01:18;;;;;;;35.10;18.50;;;7.60;99.90;;;;;;4977517;28;20224;-90
2020/12/03 07:04:06;;;;;;;25.07;19.37;;;7.60;99.90;;;;;;5005913;28;20555;-90
2020/12/03 07:06:50;;;;;;;25.47;18.53;;;7.60;99.90;;;;;;5020452;28;20232;-91
2020/12/03 07:09:47;;;;;;;39.00;20.47;;;7.40;99.90;;;;;;5014951;28;20226;-90
2020/12/03 07:12:19;;;;;;;33.37;19.80;;;7.50;99.90;;;;;;5014214;28;20168;-91
2020/12/03 07:15:12;;;;;;;32.00;19.60;;;7.50;99.90;;;;;;5027223;28;20195;-90
2020/12/03 07:18:25;;;;;;;34.90;19.73;;;7.50;99.90;;;;;;5034367;28;20246;-89
2020/12/03 07:21:20;;;;;;;39.17;19.30;;;7.50;99.90;;;;;;5034046;28;20183;-91
2020/12/03 07:24:03;;;;;;;29.03;19.40;;;7.50;99.90;;;;;;5033806;28;20223;-90
2020/12/03 07:26:56;;;;;;;35.47;20.13;;;7.40;99.90;;;;;;5036187;28;20164;-90
2020/12/03 07:29:46;;;;;;;32.40;18.90;;;7.40;99.90;;;;;;5035176;28;20168;-90
2020/12/03 07:32:51;;;;;;;37.67;19.70;;;7.50;99.90;;;;;;5033420;28;20199;-91
2020/12/03 07:35:20;;;;;;;37.17;19.83;;;7.50;99.90;;;;;;5022682;28;20211;-90
2020/12/03 07:38:27;;;;;;;36.23;20.43;;;7.60;99.90;;;;;;5034360;28;20180;-90
2020/12/03 07:40:54;;;;;;;38.70;21.03;;;7.60;99.90;;;;;;5041575;28;20195;-88
2020/12/03 07:43:36;;;;;;;37.47;21.27;;;7.60;99.90;;;;;;5025147;28;20160;-90
2020/12/03 07:46:32;;;;;;;39.13;22.77;;;7.60;99.90;;;;;;5057762;28;20187;-91
2020/12/03 07:48:59;;;;;;;36.57;21.00;;;7.70;99.90;;;;;;5042927;28;20524;-90
2020/12/03 07:51:24;;;;;;;36.63;20.43;;;7.70;99.90;;;;;;5033711;28;20184;-90
2020/12/03 07:54:16;;;;;;;43.00;21.90;;;7.70;99.90;;;;;;5033832;28;20683;-90
2020/12/03 07:56:45;;;;;;;28.47;19.60;;;7.70;99.90;;;;;;5032358;28;20180;-90
2020/12/03 07:59:23;;;;;;;36.13;19.90;;;7.70;99.90;;;;;;5049573;28;20164;-89
2020/12/03 08:01:52;;;;;;;33.00;19.17;;;7.70;99.90;;;;;;5057520;28;20171;-90
2020/12/03 08:04:18;;;;;;;27.27;18.00;;;7.80;99.90;;;;;;5035668;28;20498;-90
2020/12/03 08:07:02;;;;;;;33.83;19.53;;;7.70;99.90;;;;;;5033559;28;20187;-90
2020/12/03 08:09:42;;;;;;;22.80;17.43;;;7.80;99.90;;;;;;5033253;28;20694;-90
2020/12/03 08:12:10;;;;;;;32.13;18.47;;;7.70;99.90;;;;;;5034454;28;20172;-91
2020/12/03 08:14:41;;;;;;;26.23;17.47;;;7.60;99.90;;;;;;5033517;28;20200;-91
2020/12/03 08:17:18;;;;;;;26.73;18.40;;;7.70;99.90;;;;;;5033965;28;20176;-89
2020/12/03 08:20:04;;;;;;;30.10;19.33;;;7.70;99.90;;;;;;5034148;28;20175;-91
2020/12/03 08:22:36;;;;;;;33.90;19.07;;;7.80;99.90;;;;;;5036777;28;20187;-88
2020/12/03 08:25:10;;;;;;;29.23;18.57;;;7.80;99.90;;;;;;5035217;28;20174;-90
2020/12/03 08:27:36;;;;;;;37.53;19.73;;;7.80;99.90;;;;;;5039354;28;20163;-90
2020/12/03 08:30:02;;;;;;;33.87;19.93;;;7.80;99.90;;;;;;5036828;28;20259;-90
2020/12/03 08:33:00;;;;;;;43.20;20.90;;;7.80;99.90;;;;;;5037048;28;20192;-90
2020/12/03 08:35:25;;;;;;;35.70;19.73;;;7.90;99.90;;;;;;5033396;28;20176;-89
2020/12/03 08:37:52;;;;;;;29.87;19.80;;;7.90;99.90;;;;;;5017190;28;20526;-90
2020/12/03 08:40:17;;;;;;;27.77;19.80;;;7.90;99.90;;;;;;5034252;28;20176;-89
2020/12/03 08:42:43;;;;;;;25.13;18.20;;;7.90;99.90;;;;;;5034218;28;20175;-90
2020/12/03 08:45:09;;;;;;;31.07;17.80;;;7.90;99.90;;;;;;5018749;28;20242;-90
2020/12/03 08:47:47;;;;;;;31.80;17.53;;;7.90;99.90;;;;;;5023599;28;20187;-89
2020/12/03 08:50:16;;;;;;;26.00;18.47;;;8.00;99.90;;;;;;5048130;28;20164;-90
2020/12/03 08:52:43;;;;;;;34.67;17.73;;;8.00;99.90;;;;;;5022059;28;20176;-90
2020/12/03 08:55:11;;;;;;;31.60;17.00;;;8.00;99.90;;;;;;5024109;28;20258;-90
2020/12/03 08:57:43;;;;;;;31.80;17.50;;;7.90;99.90;;;;;;5038902;28;20172;-86
2020/12/03 09:00:16;;;;;;;28.27;17.97;;;7.90;99.90;;;;;;5039873;28;20165;-91
2020/12/03 09:02:45;;;;;;;29.13;18.03;;;7.90;99.90;;;;;;5037872;28;20190;-91
2020/12/03 09:05:13;;;;;;;25.10;17.07;;;7.90;99.90;;;;;;5036545;28;20172;-91
2020/12/03 09:07:46;;;;;;;25.87;17.57;;;7.70;99.90;;;;;;5036507;28;20164;-91
2020/12/03 09:10:12;;;;;;;24.50;15.90;;;7.80;99.90;;;;;;5038279;28;20168;-91
2020/12/03 09:12:46;;;;;;;25.13;16.37;;;7.80;99.90;;;;;;5036059;28;20259;-90
2020/12/03 09:15:15;;;;;;;27.83;16.97;;;7.70;99.90;;;;;;5036046;28;20557;-92
2020/12/03 09:17:46;;;;;;;29.97;18.23;;;7.70;99.90;;;;;;5036332;28;20176;-90
2020/12/03 09:20:12;;;;;;;27.53;16.73;;;7.70;99.90;;;;;;5036370;28;20200;-90
2020/12/03 09:22:40;;;;;;;29.03;17.47;;;7.70;99.90;;;;;;5035999;28;20223;-90
2020/12/03 09:25:11;;;;;;;30.10;17.27;;;7.70;99.90;;;;;;5022398;28;20183;-90
2020/12/03 09:27:47;;;;;;;35.33;16.90;;;7.70;99.90;;;;;;5042658;28;20168;-90
2020/12/03 09:30:40;;;;;;;25.27;16.00;;;7.60;99.90;;;;;;5042718;28;20170;-90
2020/12/03 09:33:10;;;;;;;29.23;15.63;;;7.70;99.90;;;;;;5041426;28;20621;-90
2020/12/03 09:35:37;;;;;;;31.53;15.60;;;7.70;99.90;;;;;;5044138;28;20172;-90
2020/12/03 09:38:06;;;;;;;33.30;15.20;;;7.70;99.90;;;;;;5027607;28;20179;-90
2020/12/03 09:40:35;;;;;;;27.00;14.47;;;7.70;99.90;;;;;;5045438;28;20192;-90
2020/12/03 09:43:03;;;;;;;26.83;14.30;;;7.80;99.90;;;;;;5049140;28;20326;-90
2020/12/03 09:45:36;;;;;;;26.50;14.47;;;7.70;99.90;;;;;;5045855;28;20175;-90
2020/12/03 09:48:03;;;;;;;30.37;14.20;;;7.80;99.90;;;;;;5044470;28;20175;-90
2020/12/03 09:50:31;;;;;;;25.53;14.07;;;7.70;99.90;;;;;;5043461;28;20182;-90
2020/12/03 09:52:59;;;;;;;27.50;15.23;;;7.80;99.90;;;;;;5027686;28;20271;-90
2020/12/03 09:55:25;;;;;;;20.50;14.70;;;7.90;99.90;;;;;;5027466;28;20212;-90
2020/12/03 09:57:56;;;;;;;28.10;13.47;;;7.90;99.90;;;;;;5027461;28;20247;-90
2020/12/03 10:00:33;;;;;;;24.70;13.93;;;7.90;99.90;;;;;;5043221;28;20160;-90
2020/12/03 10:03:27;;;;;;;17.23;11.90;;;8.00;99.90;;;;;;5044620;28;20168;-90
2020/12/03 10:06:08;;;;;;;22.33;13.93;;;8.10;99.90;;;;;;5046903;28;20164;-90
2020/12/03 10:08:48;;;;;;;20.20;12.27;;;8.10;99.90;;;;;;5060399;28;20156;-90
2020/12/03 10:11:19;;;;;;;22.30;11.47;;;8.20;99.90;;;;;;5058419;28;20172;-89
2020/12/03 10:13:56;;;;;;;25.17;12.83;;;8.20;99.90;;;;;;5052741;28;20199;-90
2020/12/03 10:16:27;;;;;;;18.27;12.30;;;8.40;99.90;;;;;;5041753;28;20183;-89
2020/12/03 10:18:55;;;;;;;21.80;10.93;;;8.50;99.90;;;;;;5056916;28;20141;-88
2020/12/03 10:21:23;;;;;;;14.77;10.27;;;8.40;99.90;;;;;;5058842;28;20167;-90
2020/12/03 10:24:11;;;;;;;19.93;10.30;;;8.40;99.90;;;;;;5058780;28;20180;-90
2020/12/03 10:26:48;;;;;;;19.63;9.97;;;8.40;99.90;;;;;;5059042;28;20160;-89
2020/12/03 10:29:33;;;;;;;16.70;9.23;;;8.40;99.90;;;;;;5059092;28;20159;-89
2020/12/03 10:32:07;;;;;;;14.70;9.53;;;8.20;99.90;;;;;;5056372;28;20180;-90
2020/12/03 10:34:36;;;;;;;16.37;8.67;;;8.20;99.90;;;;;;5044709;28;20194;-89
2020/12/03 10:37:27;;;;;;;11.67;8.70;;;8.10;99.90;;;;;;5037492;28;20172;-90
2020/12/03 10:40:02;;;;;;;12.53;7.87;;;8.10;99.90;;;;;;5035615;28;20253;-87
2020/12/03 10:42:36;;;;;;;13.83;8.63;;;8.10;99.90;;;;;;5036227;28;20152;-90
2020/12/03 10:45:11;;;;;;;12.93;8.37;;;8.00;99.90;;;;;;5035922;28;20172;-90
2020/12/03 10:47:45;;;;;;;8.57;7.17;;;8.00;99.90;;;;;;5035598;28;20219;-90
2020/12/03 10:50:16;;;;;;;13.13;7.27;;;8.10;99.90;;;;;;5051492;28;20175;-90
2020/12/03 10:52:43;;;;;;;10.77;7.40;;;7.90;99.90;;;;;;5034309;28;20238;-90
2020/12/03 10:55:11;;;;;;;13.50;7.27;;;7.90;99.90;;;;;;5014460;28;20273;-90
2020/12/03 10:57:40;;;;;;;11.17;6.50;;;8.00;99.90;;;;;;5018664;28;20176;-90
2020/12/03 11:00:08;;;;;;;9.30;6.97;;;7.90;99.90;;;;;;5035534;28;20172;-91
2020/12/03 11:02:42;;;;;;;11.37;6.37;;;7.80;99.90;;;;;;5002401;28;20175;-89
2020/12/03 11:05:09;;;;;;;11.80;6.90;;;7.80;99.90;;;;;;5034326;28;20570;-90
2020/12/03 11:07:37;;;;;;;11.53;6.77;;;7.70;99.90;;;;;;5034824;28;20636;-89
2020/12/03 11:10:04;;;;;;;10.07;6.30;;;7.80;99.90;;;;;;5036419;28;20171;-89
2020/12/03 11:12:30;;;;;;;7.40;6.20;;;7.80;99.90;;;;;;5012734;28;20184;-89
2020/12/03 11:15:18;;;;;;;9.63;7.33;;;7.80;99.90;;;;;;5017919;28;20211;-90
2020/12/03 11:17:56;;;;;;;10.43;6.83;;;7.90;99.90;;;;;;5034706;28;20885;-89
2020/12/03 11:20:22;;;;;;;9.27;5.87;;;7.90;99.90;;;;;;5050600;28;20179;-89
2020/12/03 11:22:48;;;;;;;7.03;6.33;;;7.90;99.90;;;;;;5034061;28;20187;-90
2020/12/03 11:25:17;;;;;;;11.43;7.13;;;7.80;99.90;;;;;;5034076;28;20184;-89
2020/12/03 11:27:45;;;;;;;7.57;6.30;;;7.80;99.90;;;;;;5034104;28;20234;-89
2020/12/03 11:30:19;;;;;;;8.07;6.57;;;7.70;99.90;;;;;;5034980;28;20255;-89
2020/12/03 11:32:52;;;;;;;11.87;6.67;;;7.60;99.90;;;;;;5034078;28;20270;-89
2020/12/03 11:35:33;;;;;;;7.43;6.50;;;7.70;99.90;;;;;;5056055;28;20203;-89
2020/12/03 11:38:02;;;;;;;6.90;6.17;;;7.70;99.90;;;;;;5056640;28;20285;-89
2020/12/03 11:40:47;;;;;;;8.60;7.63;;;7.80;99.90;;;;;;5051922;28;20191;-89
2020/12/03 11:48:57;;;;;;;6.33;5.67;;;8.00;99.90;;;;;;5032113;28;20191;-89
2020/12/03 11:51:40;;;;;;;6.50;5.17;;;8.10;99.90;;;;;;5008387;28;20176;-90
2020/12/03 11:54:08;;;;;;;7.27;4.23;;;8.10;99.90;;;;;;5017322;28;20199;-90
2020/12/03 11:56:36;;;;;;;7.23;4.23;;;8.00;99.90;;;;;;5017857;28;20187;-89
2020/12/03 11:59:17;;;;;;;4.97;4.47;;;7.90;99.90;;;;;;5034446;28;20164;-89
2020/12/03 12:01:55;;;;;;;5.30;4.13;;;8.00;99.90;;;;;;5017912;28;20263;-89
2020/12/03 12:04:31;;;;;;;5.87;4.20;;;8.00;99.90;;;;;;5018251;28;20180;-89
2020/12/03 12:09:38;;;;;;;4.33;3.83;;;7.90;99.90;;;;;;5027578;28;20159;-89
2020/12/03 12:12:04;;;;;;;6.70;3.57;;;7.90;99.90;;;;;;5019026;28;20184;-90
2020/12/03 12:14:30;;;;;;;5.50;3.60;;;7.80;99.90;;;;;;5011971;28;20235;-89
2020/12/03 12:16:55;;;;;;;5.00;3.37;;;7.80;99.90;;;;;;5039536;28;20204;-90
2020/12/03 12:19:24;;;;;;;4.07;3.73;;;7.70;99.90;;;;;;5030105;28;20175;-90
2020/12/03 12:21:50;;;;;;;4.30;3.53;;;7.70;99.90;;;;;;5031531;28;20188;-88
2020/12/03 12:24:16;;;;;;;6.13;3.30;;;7.60;99.90;;;;;;5032434;28;20194;-90
2020/12/03 12:26:44;;;;;;;3.03;2.70;;;7.70;99.90;;;;;;5049401;28;20168;-89
2020/12/03 12:29:12;;;;;;;3.83;3.33;;;7.70;99.90;;;;;;5048878;28;20168;-89
2020/12/03 12:31:38;;;;;;;3.30;3.00;;;7.60;99.90;;;;;;5056720;28;20160;-89
2020/12/03 12:34:03;;;;;;;5.87;3.00;;;7.50;99.90;;;;;;5061216;28;20196;-90
2020/12/03 12:36:29;;;;;;;3.40;2.53;;;7.50;99.90;;;;;;5060821;28;20171;-89
2020/12/03 12:38:55;;;;;;;2.97;2.67;;;7.60;99.90;;;;;;5039780;28;20172;-90
2020/12/03 12:41:21;;;;;;;3.03;2.73;;;7.50;99.90;;;;;;5050727;28;20176;-88
2020/12/03 12:43:47;;;;;;;3.63;2.90;;;7.50;99.90;;;;;;5050000;28;20167;-89
2020/12/03 12:46:18;;;;;;;3.07;2.50;;;7.50;99.90;;;;;;5047893;28;20180;-89
2020/12/03 12:48:44;;;;;;;3.40;3.07;;;7.50;99.90;;;;;;5069854;28;20223;-91
2020/12/03 12:51:09;;;;;;;2.97;2.23;;;7.50;99.90;;;;;;5044524;28;20177;-88
2020/12/03 12:53:35;;;;;;;2.80;2.60;;;7.50;99.90;;;;;;5058489;28;20212;-90
2020/12/03 12:56:01;;;;;;;3.00;2.60;;;7.50;99.90;;;;;;5051714;28;20275;-89
2020/12/03 12:58:26;;;;;;;3.10;2.80;;;7.50;99.90;;;;;;5031849;28;20180;-88
2020/12/03 13:00:52;;;;;;;3.30;3.00;;;7.50;99.90;;;;;;5047225;28;20183;-89
2020/12/03 13:03:18;;;;;;;4.27;3.27;;;7.50;99.90;;;;;;5046707;28;20168;-89
2020/12/03 13:05:43;;;;;;;4.83;3.47;;;7.50;99.90;;;;;;5030078;28;20172;-89
2020/12/03 13:08:12;;;;;;;3.23;2.93;;;7.50;99.90;;;;;;5046594;28;20199;-89
2020/12/03 13:10:38;;;;;;;6.53;3.50;;;7.50;99.90;;;;;;5030750;28;20233;-89
2020/12/03 13:13:03;;;;;;;6.50;3.20;;;7.50;99.90;;;;;;5030074;28;20187;-89
2020/12/03 13:15:29;;;;;;;7.30;3.93;;;7.60;99.90;;;;;;5030740;28;20207;-88
2020/12/03 13:17:55;;;;;;;5.40;4.40;;;7.50;99.90;;;;;;5046939;28;20195;-89